sensor_id;sensor_type;location;lat;lon;timestamp;temperature;humidity
27162;DHT22;54464;50.558;9.704;2023-06-10T00:00:49;18.30;96.30
27162;DHT22;54464;50.558;9.704;2023-06-10T00:03:16;18.20;96.40
27162;DHT22;54464;50.558;9.704;2023-06-10T00:05:41;18.20;97.10
27162;DHT22;54464;50.558;9.704;2023-06-10T00:08:07;18.20;97.60
27162;DHT22;54464;50.558;9.704;2023-06-10T00:10:37;18.20;97.50
27162;DHT22;54464;50.558;9.704;2023-06-10T00:13:04;18.20;98.20
27162;DHT22;54464;50.558;9.704;2023-06-10T00:15:30;18.20;98.30
27162;DHT22;54464;50.558;9.704;2023-06-10T00:17:57;18.20;98.60
27162;DHT22;54464;50.558;9.704;2023-06-10T00:20:23;18.10;98.80
27162;DHT22;54464;50.558;9.704;2023-06-10T00:22:49;18.10;99.10
27162;DHT22;54464;50.558;9.704;2023-06-10T00:25:15;18.00;98.50
27162;DHT22;54464;50.558;9.704;2023-06-10T00:27:40;17.90;98.10
27162;DHT22;54464;50.558;9.704;2023-06-10T00:30:06;17.90;97.00
27162;DHT22;54464;50.558;9.704;2023-06-10T00:32:36;17.80;97.30
27162;DHT22;54464;50.558;9.704;2023-06-10T00:35:06;17.80;97.00
27162;DHT22;54464;50.558;9.704;2023-06-10T00:37:32;17.80;97.20
27162;DHT22;54464;50.558;9.704;2023-06-10T00:40:00;17.50;98.90
27162;DHT22;54464;50.558;9.704;2023-06-10T00:42:26;17.20;99.90
27162;DHT22;54464;50.558;9.704;2023-06-10T00:44:51;17.00;99.90
27162;DHT22;54464;50.558;9.704;2023-06-10T00:47:17;16.90;99.90
27162;DHT22;54464;50.558;9.704;2023-06-10T00:49:44;16.80;99.90
27162;DHT22;54464;50.558;9.704;2023-06-10T00:52:10;16.80;99.90
27162;DHT22;54464;50.558;9.704;2023-06-10T00:54:39;16.70;99.90
27162;DHT22;54464;50.558;9.704;2023-06-10T00:57:05;16.60;99.90
27162;DHT22;54464;50.558;9.704;2023-06-10T00:59:31;16.50;99.90
27162;DHT22;54464;50.558;9.704;2023-06-10T01:01:57;16.50;99.90
27162;DHT22;54464;50.558;9.704;2023-06-10T01:04:26;16.60;99.90
27162;DHT22;54464;50.558;9.704;2023-06-10T01:12:45;16.60;99.90
27162;DHT22;54464;50.558;9.704;2023-06-10T01:15:15;16.60;99.90
27162;DHT22;54464;50.558;9.704;2023-06-10T01:18:09;16.50;99.90
27162;DHT22;54464;50.558;9.704;2023-06-10T01:20:46;16.40;99.90
27162;DHT22;54464;50.558;9.704;2023-06-10T01:23:13;16.50;99.90
27162;DHT22;54464;50.558;9.704;2023-06-10T01:25:46;16.50;99.90
27162;DHT22;54464;50.558;9.704;2023-06-10T01:31:13;16.60;99.90
27162;DHT22;54464;50.558;9.704;2023-06-10T01:33:43;16.60;99.90
27162;DHT22;54464;50.558;9.704;2023-06-10T01:36:12;16.60;99.90
27162;DHT22;54464;50.558;9.704;2023-06-10T01:38:46;16.60;99.90
27162;DHT22;54464;50.558;9.704;2023-06-10T01:41:14;16.20;99.90
27162;DHT22;54464;50.558;9.704;2023-06-10T01:43:43;16.10;99.90
27162;DHT22;54464;50.558;9.704;2023-06-10T01:46:15;16.10;99.90
27162;DHT22;54464;50.558;9.704;2023-06-10T01:48:48;16.00;99.90
27162;DHT22;54464;50.558;9.704;2023-06-10T01:51:14;15.90;99.90
27162;DHT22;54464;50.558;9.704;2023-06-10T01:53:42;15.70;99.90
27162;DHT22;54464;50.558;9.704;2023-06-10T01:56:10;15.70;99.90
27162;DHT22;54464;50.558;9.704;2023-06-10T01:58:42;15.80;99.90
27162;DHT22;54464;50.558;9.704;2023-06-10T02:01:07;15.70;99.90
27162;DHT22;54464;50.558;9.704;2023-06-10T02:03:39;15.50;99.90
27162;DHT22;54464;50.558;9.704;2023-06-10T02:06:05;15.40;99.90
27162;DHT22;54464;50.558;9.704;2023-06-10T02:08:31;15.20;99.90
27162;DHT22;54464;50.558;9.704;2023-06-10T02:11:00;15.40;99.90
27162;DHT22;54464;50.558;9.704;2023-06-10T02:13:25;15.40;99.90
27162;DHT22;54464;50.558;9.704;2023-06-10T02:15:51;15.50;99.90
27162;DHT22;54464;50.558;9.704;2023-06-10T02:18:20;15.60;99.90
27162;DHT22;54464;50.558;9.704;2023-06-10T02:20:54;15.60;99.90
27162;DHT22;54464;50.558;9.704;2023-06-10T02:23:20;15.60;99.90
27162;DHT22;54464;50.558;9.704;2023-06-10T02:25:45;15.70;99.90
27162;DHT22;54464;50.558;9.704;2023-06-10T02:28:15;15.70;99.90
27162;DHT22;54464;50.558;9.704;2023-06-10T02:30:41;15.80;99.90
27162;DHT22;54464;50.558;9.704;2023-06-10T02:33:10;15.80;99.90
27162;DHT22;54464;50.558;9.704;2023-06-10T02:35:39;15.90;99.90
27162;DHT22;54464;50.558;9.704;2023-06-10T02:38:08;15.90;99.90
27162;DHT22;54464;50.558;9.704;2023-06-10T02:40:37;15.70;99.90
27162;DHT22;54464;50.558;9.704;2023-06-10T02:43:02;15.40;99.90
27162;DHT22;54464;50.558;9.704;2023-06-10T02:45:28;15.20;99.90
27162;DHT22;54464;50.558;9.704;2023-06-10T02:47:54;15.20;99.90
27162;DHT22;54464;50.558;9.704;2023-06-10T02:50:43;15.10;99.90
27162;DHT22;54464;50.558;9.704;2023-06-10T02:53:08;15.10;99.90
27162;DHT22;54464;50.558;9.704;2023-06-10T02:55:34;15.20;99.90
27162;DHT22;54464;50.558;9.704;2023-06-10T02:58:03;15.50;99.90
27162;DHT22;54464;50.558;9.704;2023-06-10T03:00:29;15.50;99.90
27162;DHT22;54464;50.558;9.704;2023-06-10T03:02:54;15.50;99.90
27162;DHT22;54464;50.558;9.704;2023-06-10T03:05:23;15.50;99.90
27162;DHT22;54464;50.558;9.704;2023-06-10T03:07:49;15.50;99.90
27162;DHT22;54464;50.558;9.704;2023-06-10T03:10:18;15.50;99.90
27162;DHT22;54464;50.558;9.704;2023-06-10T03:12:44;15.50;99.90
27162;DHT22;54464;50.558;9.704;2023-06-10T03:15:09;15.40;99.90
27162;DHT22;54464;50.558;9.704;2023-06-10T03:17:35;15.20;99.90
27162;DHT22;54464;50.558;9.704;2023-06-10T03:20:00;15.20;99.90
27162;DHT22;54464;50.558;9.704;2023-06-10T03:22:26;15.10;99.90
27162;DHT22;54464;50.558;9.704;2023-06-10T03:24:52;15.00;99.90
27162;DHT22;54464;50.558;9.704;2023-06-10T03:27:21;15.10;99.90
27162;DHT22;54464;50.558;9.704;2023-06-10T03:29:47;15.20;99.90
27162;DHT22;54464;50.558;9.704;2023-06-10T03:32:21;15.30;99.90
27162;DHT22;54464;50.558;9.704;2023-06-10T03:34:47;15.40;99.90
27162;DHT22;54464;50.558;9.704;2023-06-10T03:37:13;15.50;99.90
27162;DHT22;54464;50.558;9.704;2023-06-10T03:39:41;15.60;99.90
27162;DHT22;54464;50.558;9.704;2023-06-10T03:42:07;15.70;99.90
27162;DHT22;54464;50.558;9.704;2023-06-10T03:44:32;15.70;99.90
27162;DHT22;54464;50.558;9.704;2023-06-10T03:47:07;15.80;99.90
27162;DHT22;54464;50.558;9.704;2023-06-10T03:49:38;15.80;99.90
27162;DHT22;54464;50.558;9.704;2023-06-10T03:52:03;15.80;99.90
27162;DHT22;54464;50.558;9.704;2023-06-10T03:54:29;15.80;99.90
27162;DHT22;54464;50.558;9.704;2023-06-10T03:56:56;15.80;99.90
27162;DHT22;54464;50.558;9.704;2023-06-10T03:59:22;15.40;99.90
27162;DHT22;54464;50.558;9.704;2023-06-10T04:01:50;15.30;99.90
27162;DHT22;54464;50.558;9.704;2023-06-10T04:04:18;15.20;99.90
27162;DHT22;54464;50.558;9.704;2023-06-10T04:06:44;15.10;99.90
27162;DHT22;54464;50.558;9.704;2023-06-10T04:09:13;15.20;99.90
27162;DHT22;54464;50.558;9.704;2023-06-10T04:11:41;15.30;99.90
27162;DHT22;54464;50.558;9.704;2023-06-10T04:14:07;15.50;99.90
27162;DHT22;54464;50.558;9.704;2023-06-10T04:16:33;15.50;99.90
27162;DHT22;54464;50.558;9.704;2023-06-10T04:19:04;15.40;99.90
27162;DHT22;54464;50.558;9.704;2023-06-10T04:21:33;15.40;99.90
27162;DHT22;54464;50.558;9.704;2023-06-10T04:23:58;15.20;99.90
27162;DHT22;54464;50.558;9.704;2023-06-10T04:26:24;15.20;99.90
27162;DHT22;54464;50.558;9.704;2023-06-10T04:28:56;15.10;99.90
27162;DHT22;54464;50.558;9.704;2023-06-10T04:31:22;15.10;99.90
27162;DHT22;54464;50.558;9.704;2023-06-10T04:33:47;15.10;99.90
27162;DHT22;54464;50.558;9.704;2023-06-10T04:36:13;15.20;99.90
27162;DHT22;54464;50.558;9.704;2023-06-10T04:38:39;14.90;99.90
27162;DHT22;54464;50.558;9.704;2023-06-10T04:41:06;14.70;99.90
27162;DHT22;54464;50.558;9.704;2023-06-10T04:43:31;14.50;99.90
27162;DHT22;54464;50.558;9.704;2023-06-10T04:45:57;14.60;99.90
27162;DHT22;54464;50.558;9.704;2023-06-10T04:48:25;14.60;99.90
27162;DHT22;54464;50.558;9.704;2023-06-10T04:50:51;14.70;99.90
27162;DHT22;54464;50.558;9.704;2023-06-10T04:53:16;14.80;99.90
27162;DHT22;54464;50.558;9.704;2023-06-10T04:55:42;14.80;99.90
27162;DHT22;54464;50.558;9.704;2023-06-10T04:58:09;14.70;99.90
27162;DHT22;54464;50.558;9.704;2023-06-10T05:00:34;14.80;99.90
27162;DHT22;54464;50.558;9.704;2023-06-10T05:03:00;14.80;99.90
27162;DHT22;54464;50.558;9.704;2023-06-10T05:05:26;14.90;99.90
27162;DHT22;54464;50.558;9.704;2023-06-10T05:07:51;15.00;99.90
27162;DHT22;54464;50.558;9.704;2023-06-10T05:10:22;15.00;99.90
27162;DHT22;54464;50.558;9.704;2023-06-10T05:12:48;15.10;99.90
27162;DHT22;54464;50.558;9.704;2023-06-10T05:15:13;15.30;99.90
27162;DHT22;54464;50.558;9.704;2023-06-10T05:17:42;15.20;99.90
27162;DHT22;54464;50.558;9.704;2023-06-10T05:20:10;15.00;99.90
27162;DHT22;54464;50.558;9.704;2023-06-10T05:22:51;15.20;99.90
27162;DHT22;54464;50.558;9.704;2023-06-10T05:25:22;15.10;99.90
27162;DHT22;54464;50.558;9.704;2023-06-10T05:27:48;15.20;99.90
27162;DHT22;54464;50.558;9.704;2023-06-10T05:30:13;15.20;99.90
27162;DHT22;54464;50.558;9.704;2023-06-10T05:32:44;15.40;99.90
27162;DHT22;54464;50.558;9.704;2023-06-10T05:35:09;15.40;99.90
27162;DHT22;54464;50.558;9.704;2023-06-10T05:37:35;15.50;99.90
27162;DHT22;54464;50.558;9.704;2023-06-10T05:40:02;15.60;99.90
27162;DHT22;54464;50.558;9.704;2023-06-10T05:42:29;15.60;99.90
27162;DHT22;54464;50.558;9.704;2023-06-10T05:44:55;15.50;99.90
27162;DHT22;54464;50.558;9.704;2023-06-10T05:47:20;15.50;99.90
27162;DHT22;54464;50.558;9.704;2023-06-10T05:49:46;15.60;99.90
27162;DHT22;54464;50.558;9.704;2023-06-10T05:52:14;15.90;99.90
27162;DHT22;54464;50.558;9.704;2023-06-10T05:54:39;16.30;99.90
27162;DHT22;54464;50.558;9.704;2023-06-10T05:57:05;16.50;99.90
27162;DHT22;54464;50.558;9.704;2023-06-10T05:59:31;16.80;99.90
27162;DHT22;54464;50.558;9.704;2023-06-10T06:01:57;17.00;99.90
27162;DHT22;54464;50.558;9.704;2023-06-10T06:04:22;17.30;99.90
27162;DHT22;54464;50.558;9.704;2023-06-10T06:06:48;17.50;99.90
27162;DHT22;54464;50.558;9.704;2023-06-10T06:09:13;17.60;99.90
27162;DHT22;54464;50.558;9.704;2023-06-10T06:11:39;17.80;99.90
27162;DHT22;54464;50.558;9.704;2023-06-10T06:14:04;18.00;99.90
27162;DHT22;54464;50.558;9.704;2023-06-10T06:16:30;18.10;99.90
27162;DHT22;54464;50.558;9.704;2023-06-10T06:18:56;18.20;99.90
27162;DHT22;54464;50.558;9.704;2023-06-10T06:21:21;18.20;99.90
27162;DHT22;54464;50.558;9.704;2023-06-10T06:23:47;18.30;99.90
27162;DHT22;54464;50.558;9.704;2023-06-10T06:26:12;18.40;99.90
27162;DHT22;54464;50.558;9.704;2023-06-10T06:28:38;18.40;99.90
27162;DHT22;54464;50.558;9.704;2023-06-10T06:31:03;18.40;99.90
27162;DHT22;54464;50.558;9.704;2023-06-10T06:33:30;18.50;99.90
27162;DHT22;54464;50.558;9.704;2023-06-10T06:35:55;18.50;99.90
27162;DHT22;54464;50.558;9.704;2023-06-10T06:38:21;18.60;99.90
27162;DHT22;54464;50.558;9.704;2023-06-10T06:40:46;18.60;99.90
27162;DHT22;54464;50.558;9.704;2023-06-10T06:43:21;18.60;99.90
27162;DHT22;54464;50.558;9.704;2023-06-10T06:45:46;18.70;99.90
27162;DHT22;54464;50.558;9.704;2023-06-10T06:48:12;18.90;99.90
27162;DHT22;54464;50.558;9.704;2023-06-10T06:50:38;18.90;99.90
27162;DHT22;54464;50.558;9.704;2023-06-10T06:53:06;18.90;99.90
27162;DHT22;54464;50.558;9.704;2023-06-10T06:55:35;19.00;99.90
27162;DHT22;54464;50.558;9.704;2023-06-10T06:58:00;19.10;99.90
27162;DHT22;54464;50.558;9.704;2023-06-10T07:00:35;19.20;99.90
27162;DHT22;54464;50.558;9.704;2023-06-10T07:03:00;19.30;99.90
27162;DHT22;54464;50.558;9.704;2023-06-10T07:05:26;19.30;99.90
27162;DHT22;54464;50.558;9.704;2023-06-10T07:07:55;19.30;99.90
27162;DHT22;54464;50.558;9.704;2023-06-10T07:10:22;19.40;99.90
27162;DHT22;54464;50.558;9.704;2023-06-10T07:12:48;19.40;99.90
27162;DHT22;54464;50.558;9.704;2023-06-10T07:15:14;19.60;99.90
27162;DHT22;54464;50.558;9.704;2023-06-10T07:17:43;19.70;99.90
27162;DHT22;54464;50.558;9.704;2023-06-10T07:20:09;19.90;99.90
27162;DHT22;54464;50.558;9.704;2023-06-10T07:22:35;19.90;99.90
27162;DHT22;54464;50.558;9.704;2023-06-10T07:25:09;19.90;99.90
27162;DHT22;54464;50.558;9.704;2023-06-10T07:27:35;20.00;99.90
27162;DHT22;54464;50.558;9.704;2023-06-10T07:30:18;20.20;99.90
27162;DHT22;54464;50.558;9.704;2023-06-10T07:32:46;20.30;99.90
27162;DHT22;54464;50.558;9.704;2023-06-10T07:35:21;20.40;99.70
27162;DHT22;54464;50.558;9.704;2023-06-10T07:37:46;20.50;99.90
27162;DHT22;54464;50.558;9.704;2023-06-10T07:40:12;20.70;99.70
27162;DHT22;54464;50.558;9.704;2023-06-10T07:42:41;20.80;99.90
27162;DHT22;54464;50.558;9.704;2023-06-10T07:45:10;20.90;99.50
27162;DHT22;54464;50.558;9.704;2023-06-10T07:47:36;20.90;98.70
27162;DHT22;54464;50.558;9.704;2023-06-10T07:50:02;20.90;98.70
27162;DHT22;54464;50.558;9.704;2023-06-10T07:52:30;20.90;99.10
27162;DHT22;54464;50.558;9.704;2023-06-10T07:55:01;20.90;98.70
27162;DHT22;54464;50.558;9.704;2023-06-10T07:57:27;20.90;99.50
27162;DHT22;54464;50.558;9.704;2023-06-10T07:59:57;21.10;99.10
27162;DHT22;54464;50.558;9.704;2023-06-10T08:02:25;21.20;98.80
27162;DHT22;54464;50.558;9.704;2023-06-10T08:04:56;21.30;99.10
27162;DHT22;54464;50.558;9.704;2023-06-10T08:07:29;21.40;98.20
27162;DHT22;54464;50.558;9.704;2023-06-10T08:09:56;21.50;98.80
27162;DHT22;54464;50.558;9.704;2023-06-10T08:12:21;21.60;98.80
27162;DHT22;54464;50.558;9.704;2023-06-10T08:14:53;21.70;99.20
27162;DHT22;54464;50.558;9.704;2023-06-10T08:17:20;21.70;97.50
27162;DHT22;54464;50.558;9.704;2023-06-10T08:19:45;21.70;98.30
27162;DHT22;54464;50.558;9.704;2023-06-10T08:22:17;21.80;98.00
27162;DHT22;54464;50.558;9.704;2023-06-10T08:24:45;21.80;97.80
27162;DHT22;54464;50.558;9.704;2023-06-10T08:27:10;21.80;97.60
27162;DHT22;54464;50.558;9.704;2023-06-10T08:29:36;22.00;97.90
27162;DHT22;54464;50.558;9.704;2023-06-10T08:32:05;22.00;97.70
27162;DHT22;54464;50.558;9.704;2023-06-10T08:34:33;22.10;97.90
27162;DHT22;54464;50.558;9.704;2023-06-10T08:37:17;22.30;98.40
27162;DHT22;54464;50.558;9.704;2023-06-10T08:39:43;22.40;97.90
27162;DHT22;54464;50.558;9.704;2023-06-10T08:43:05;22.40;97.70
27162;DHT22;54464;50.558;9.704;2023-06-10T08:45:29;22.50;98.20
27162;DHT22;54464;50.558;9.704;2023-06-10T08:47:59;22.70;97.50
27162;DHT22;54464;50.558;9.704;2023-06-10T08:50:29;22.80;97.30
27162;DHT22;54464;50.558;9.704;2023-06-10T08:52:58;22.90;96.60
27162;DHT22;54464;50.558;9.704;2023-06-10T08:55:30;23.10;96.90
27162;DHT22;54464;50.558;9.704;2023-06-10T08:57:57;23.10;96.20
27162;DHT22;54464;50.558;9.704;2023-06-10T09:00:25;23.20;96.10
27162;DHT22;54464;50.558;9.704;2023-06-10T09:03:01;23.20;96.20
27162;DHT22;54464;50.558;9.704;2023-06-10T09:05:33;23.30;95.50
27162;DHT22;54464;50.558;9.704;2023-06-10T09:07:59;23.30;96.00
27162;DHT22;54464;50.558;9.704;2023-06-10T09:10:34;23.40;96.20
27162;DHT22;54464;50.558;9.704;2023-06-10T09:13:03;23.40;96.40
27162;DHT22;54464;50.558;9.704;2023-06-10T09:15:28;23.50;95.60
27162;DHT22;54464;50.558;9.704;2023-06-10T09:17:54;23.50;96.50
27162;DHT22;54464;50.558;9.704;2023-06-10T09:20:20;23.60;95.20
27162;DHT22;54464;50.558;9.704;2023-06-10T09:22:48;23.70;95.00
27162;DHT22;54464;50.558;9.704;2023-06-10T09:25:17;23.90;95.10
27162;DHT22;54464;50.558;9.704;2023-06-10T09:27:50;23.90;94.50
27162;DHT22;54464;50.558;9.704;2023-06-10T09:30:30;24.10;94.80
27162;DHT22;54464;50.558;9.704;2023-06-10T09:32:59;24.30;94.80
27162;DHT22;54464;50.558;9.704;2023-06-10T09:35:29;24.20;94.70
27162;DHT22;54464;50.558;9.704;2023-06-10T09:37:57;24.30;96.10
27162;DHT22;54464;50.558;9.704;2023-06-10T09:40:23;24.30;93.70
27162;DHT22;54464;50.558;9.704;2023-06-10T09:43:01;24.40;94.00
27162;DHT22;54464;50.558;9.704;2023-06-10T09:45:30;24.60;95.90
27162;DHT22;54464;50.558;9.704;2023-06-10T09:48:01;24.60;93.00
27162;DHT22;54464;50.558;9.704;2023-06-10T09:50:28;24.60;93.70
27162;DHT22;54464;50.558;9.704;2023-06-10T09:52:58;24.80;94.60
27162;DHT22;54464;50.558;9.704;2023-06-10T09:55:32;25.00;93.00
27162;DHT22;54464;50.558;9.704;2023-06-10T09:58:01;25.10;92.90
27162;DHT22;54464;50.558;9.704;2023-06-10T10:00:36;25.20;92.10
27162;DHT22;54464;50.558;9.704;2023-06-10T10:03:02;25.20;92.20
27162;DHT22;54464;50.558;9.704;2023-06-10T10:05:34;25.30;91.60
27162;DHT22;54464;50.558;9.704;2023-06-10T10:08:12;25.60;91.70
27162;DHT22;54464;50.558;9.704;2023-06-10T10:10:37;25.70;91.90
27162;DHT22;54464;50.558;9.704;2023-06-10T10:13:03;25.70;91.00
27162;DHT22;54464;50.558;9.704;2023-06-10T10:15:31;26.00;91.50
27162;DHT22;54464;50.558;9.704;2023-06-10T10:18:10;26.10;87.60
27162;DHT22;54464;50.558;9.704;2023-06-10T10:21:00;26.10;84.50
27162;DHT22;54464;50.558;9.704;2023-06-10T10:24:01;26.30;85.70
27162;DHT22;54464;50.558;9.704;2023-06-10T10:26:34;26.30;83.40
27162;DHT22;54464;50.558;9.704;2023-06-10T10:31:32;26.50;84.80
27162;DHT22;54464;50.558;9.704;2023-06-10T10:34:02;26.50;82.30
27162;DHT22;54464;50.558;9.704;2023-06-10T10:36:30;26.70;83.40
27162;DHT22;54464;50.558;9.704;2023-06-10T10:38:57;27.10;83.60
27162;DHT22;54464;50.558;9.704;2023-06-10T10:41:24;27.20;83.50
27162;DHT22;54464;50.558;9.704;2023-06-10T10:44:01;27.30;80.20
27162;DHT22;54464;50.558;9.704;2023-06-10T10:46:46;27.50;80.90
27162;DHT22;54464;50.558;9.704;2023-06-10T10:49:14;27.70;77.70
27162;DHT22;54464;50.558;9.704;2023-06-10T10:51:58;27.70;77.80
27162;DHT22;54464;50.558;9.704;2023-06-10T10:54:44;27.90;81.60
27162;DHT22;54464;50.558;9.704;2023-06-10T10:57:28;28.20;82.30
27162;DHT22;54464;50.558;9.704;2023-06-10T10:59:58;28.50;83.00
27162;DHT22;54464;50.558;9.704;2023-06-10T11:02:44;28.60;77.30
27162;DHT22;54464;50.558;9.704;2023-06-10T11:05:38;28.70;80.90
27162;DHT22;54464;50.558;9.704;2023-06-10T11:08:13;28.80;78.50
27162;DHT22;54464;50.558;9.704;2023-06-10T11:10:51;28.90;78.30
27162;DHT22;54464;50.558;9.704;2023-06-10T11:13:21;29.10;76.60
27162;DHT22;54464;50.558;9.704;2023-06-10T11:15:49;29.20;75.50
27162;DHT22;54464;50.558;9.704;2023-06-10T11:18:26;29.20;73.40
27162;DHT22;54464;50.558;9.704;2023-06-10T11:20:58;29.20;70.70
27162;DHT22;54464;50.558;9.704;2023-06-10T11:31:19;29.70;72.90
27162;DHT22;54464;50.558;9.704;2023-06-10T11:33:47;29.60;71.40
27162;DHT22;54464;50.558;9.704;2023-06-10T11:36:17;29.60;71.10
27162;DHT22;54464;50.558;9.704;2023-06-10T11:38:42;29.90;71.80
27162;DHT22;54464;50.558;9.704;2023-06-10T11:41:08;30.20;72.20
27162;DHT22;54464;50.558;9.704;2023-06-10T11:43:34;30.30;72.30
27162;DHT22;54464;50.558;9.704;2023-06-10T11:46:00;30.50;72.60
27162;DHT22;54464;50.558;9.704;2023-06-10T11:48:27;30.90;69.60
27162;DHT22;54464;50.558;9.704;2023-06-10T11:50:55;30.80;68.50
27162;DHT22;54464;50.558;9.704;2023-06-10T11:53:21;31.00;67.80
27162;DHT22;54464;50.558;9.704;2023-06-10T11:55:49;31.90;68.70
27162;DHT22;54464;50.558;9.704;2023-06-10T11:58:20;33.00;65.60
27162;DHT22;54464;50.558;9.704;2023-06-10T12:00:54;33.30;62.60
27162;DHT22;54464;50.558;9.704;2023-06-10T12:03:21;34.30;61.80
27162;DHT22;54464;50.558;9.704;2023-06-10T12:06:02;34.80;58.90
27162;DHT22;54464;50.558;9.704;2023-06-10T12:08:28;36.00;58.30
27162;DHT22;54464;50.558;9.704;2023-06-10T12:10:54;36.80;56.20
27162;DHT22;54464;50.558;9.704;2023-06-10T12:13:21;37.50;56.30
27162;DHT22;54464;50.558;9.704;2023-06-10T12:15:47;37.70;55.60
27162;DHT22;54464;50.558;9.704;2023-06-10T12:18:23;38.00;54.10
27162;DHT22;54464;50.558;9.704;2023-06-10T12:20:51;38.20;53.40
27162;DHT22;54464;50.558;9.704;2023-06-10T12:23:28;38.20;54.40
27162;DHT22;54464;50.558;9.704;2023-06-10T12:25:54;38.40;54.20
27162;DHT22;54464;50.558;9.704;2023-06-10T12:28:24;38.40;52.70
27162;DHT22;54464;50.558;9.704;2023-06-10T12:31:09;37.70;54.60
27162;DHT22;54464;50.558;9.704;2023-06-10T12:33:34;38.00;53.00
27162;DHT22;54464;50.558;9.704;2023-06-10T12:36:16;39.30;52.40
27162;DHT22;54464;50.558;9.704;2023-06-10T12:38:42;39.90;52.60
27162;DHT22;54464;50.558;9.704;2023-06-10T12:41:12;40.00;51.60
27162;DHT22;54464;50.558;9.704;2023-06-10T12:43:39;39.90;49.80
27162;DHT22;54464;50.558;9.704;2023-06-10T12:46:09;40.30;51.40
27162;DHT22;54464;50.558;9.704;2023-06-10T12:48:35;40.80;50.60
27162;DHT22;54464;50.558;9.704;2023-06-10T12:51:04;41.50;50.30
27162;DHT22;54464;50.558;9.704;2023-06-10T12:53:31;41.20;50.40
27162;DHT22;54464;50.558;9.704;2023-06-10T12:55:56;41.00;50.40
27162;DHT22;54464;50.558;9.704;2023-06-10T12:58:24;40.40;50.90
27162;DHT22;54464;50.558;9.704;2023-06-10T13:00:50;40.90;51.90
27162;DHT22;54464;50.558;9.704;2023-06-10T13:03:20;40.40;49.30
27162;DHT22;54464;50.558;9.704;2023-06-10T13:05:47;39.80;52.20
27162;DHT22;54464;50.558;9.704;2023-06-10T13:08:12;39.00;53.40
27162;DHT22;54464;50.558;9.704;2023-06-10T13:10:41;38.80;54.20
27162;DHT22;54464;50.558;9.704;2023-06-10T13:13:07;38.60;54.60
27162;DHT22;54464;50.558;9.704;2023-06-10T13:15:35;38.30;56.60
27162;DHT22;54464;50.558;9.704;2023-06-10T13:18:12;38.00;52.30
27162;DHT22;54464;50.558;9.704;2023-06-10T13:20:40;37.70;56.00
27162;DHT22;54464;50.558;9.704;2023-06-10T13:23:06;36.90;57.00
27162;DHT22;54464;50.558;9.704;2023-06-10T13:25:31;36.60;58.30
27162;DHT22;54464;50.558;9.704;2023-06-10T13:27:57;36.80;60.10
27162;DHT22;54464;50.558;9.704;2023-06-10T13:30:23;35.40;57.10
27162;DHT22;54464;50.558;9.704;2023-06-10T13:32:51;35.00;59.70
27162;DHT22;54464;50.558;9.704;2023-06-10T13:35:20;35.10;58.50
27162;DHT22;54464;50.558;9.704;2023-06-10T13:37:46;35.40;59.20
27162;DHT22;54464;50.558;9.704;2023-06-10T13:40:17;35.60;59.90
27162;DHT22;54464;50.558;9.704;2023-06-10T13:42:44;35.60;59.50
27162;DHT22;54464;50.558;9.704;2023-06-10T13:45:16;35.50;59.40
27162;DHT22;54464;50.558;9.704;2023-06-10T13:47:45;35.40;60.00
27162;DHT22;54464;50.558;9.704;2023-06-10T13:50:14;35.70;59.40
27162;DHT22;54464;50.558;9.704;2023-06-10T13:52:44;34.90;59.60
27162;DHT22;54464;50.558;9.704;2023-06-10T13:55:10;34.30;61.90
27162;DHT22;54464;50.558;9.704;2023-06-10T13:57:35;35.40;62.00
27162;DHT22;54464;50.558;9.704;2023-06-10T14:00:07;35.40;58.80
27162;DHT22;54464;50.558;9.704;2023-06-10T14:02:35;35.50;59.80
27162;DHT22;54464;50.558;9.704;2023-06-10T14:05:01;36.00;61.50
27162;DHT22;54464;50.558;9.704;2023-06-10T14:07:30;36.00;60.70
27162;DHT22;54464;50.558;9.704;2023-06-10T14:09:56;36.80;59.20
27162;DHT22;54464;50.558;9.704;2023-06-10T14:12:21;36.90;59.80
27162;DHT22;54464;50.558;9.704;2023-06-10T14:14:47;37.30;58.90
27162;DHT22;54464;50.558;9.704;2023-06-10T14:17:13;38.10;58.60
27162;DHT22;54464;50.558;9.704;2023-06-10T14:19:44;38.90;57.50
27162;DHT22;54464;50.558;9.704;2023-06-10T14:22:13;38.80;58.30
27162;DHT22;54464;50.558;9.704;2023-06-10T14:24:38;39.20;59.30
27162;DHT22;54464;50.558;9.704;2023-06-10T14:27:04;38.60;54.30
27162;DHT22;54464;50.558;9.704;2023-06-10T14:29:30;38.90;56.00
27162;DHT22;54464;50.558;9.704;2023-06-10T14:32:06;39.20;58.00
27162;DHT22;54464;50.558;9.704;2023-06-10T14:34:32;40.00;56.20
27162;DHT22;54464;50.558;9.704;2023-06-10T14:37:04;40.50;55.60
27162;DHT22;54464;50.558;9.704;2023-06-10T14:39:35;40.00;55.90
27162;DHT22;54464;50.558;9.704;2023-06-10T14:42:01;40.20;55.40
27162;DHT22;54464;50.558;9.704;2023-06-10T14:44:30;39.60;55.80
27162;DHT22;54464;50.558;9.704;2023-06-10T14:46:58;40.30;54.30
27162;DHT22;54464;50.558;9.704;2023-06-10T14:49:26;39.80;55.00
27162;DHT22;54464;50.558;9.704;2023-06-10T14:51:52;39.20;55.50
27162;DHT22;54464;50.558;9.704;2023-06-10T14:54:35;39.80;53.60
27162;DHT22;54464;50.558;9.704;2023-06-10T14:57:03;39.10;56.70
27162;DHT22;54464;50.558;9.704;2023-06-10T14:59:29;39.80;55.30
27162;DHT22;54464;50.558;9.704;2023-06-10T15:01:54;40.40;54.80
27162;DHT22;54464;50.558;9.704;2023-06-10T15:04:22;40.80;53.50
27162;DHT22;54464;50.558;9.704;2023-06-10T15:06:48;41.00;54.80
27162;DHT22;54464;50.558;9.704;2023-06-10T15:09:15;41.40;53.50
27162;DHT22;54464;50.558;9.704;2023-06-10T15:11:44;41.30;55.00
27162;DHT22;54464;50.558;9.704;2023-06-10T15:14:17;41.50;55.30
27162;DHT22;54464;50.558;9.704;2023-06-10T15:16:43;40.90;55.90
27162;DHT22;54464;50.558;9.704;2023-06-10T15:19:11;41.60;53.40
27162;DHT22;54464;50.558;9.704;2023-06-10T15:21:45;42.10;53.60
27162;DHT22;54464;50.558;9.704;2023-06-10T15:24:11;42.60;53.20
27162;DHT22;54464;50.558;9.704;2023-06-10T15:26:36;42.50;52.80
27162;DHT22;54464;50.558;9.704;2023-06-10T15:29:02;41.40;53.50
27162;DHT22;54464;50.558;9.704;2023-06-10T15:31:32;40.60;54.30
27162;DHT22;54464;50.558;9.704;2023-06-10T15:34:01;37.90;55.70
27162;DHT22;54464;50.558;9.704;2023-06-10T15:36:27;34.80;60.30
27162;DHT22;54464;50.558;9.704;2023-06-10T15:38:53;32.20;67.50
27162;DHT22;54464;50.558;9.704;2023-06-10T15:41:25;29.70;74.50
27162;DHT22;54464;50.558;9.704;2023-06-10T15:43:52;28.40;80.10
27162;DHT22;54464;50.558;9.704;2023-06-10T15:46:17;27.10;85.70
27162;DHT22;54464;50.558;9.704;2023-06-10T15:48:49;26.10;91.90
27162;DHT22;54464;50.558;9.704;2023-06-10T15:51:14;25.10;94.40
27162;DHT22;54464;50.558;9.704;2023-06-10T15:53:40;24.40;96.30
27162;DHT22;54464;50.558;9.704;2023-06-10T15:56:09;23.90;97.50
27162;DHT22;54464;50.558;9.704;2023-06-10T15:58:43;23.80;98.40